Time;durP1;ratioP1;P1;durP2;ratioP2;P2;SDS_P1;SDS_P2;PMS_P1;PMS_P2;Temp;Humidity;BMP_temperature;BMP_pressure;BME280_temperature;BME280_humidity;BME280_pressure;Samples;Min_cycle;Max_cycle;Signal;HPM_P1;HPM_P2
2022/01/20 00:00:19;;;;;;;11.25;1.48;;;;;;;7.88;65.43;102617.59;4977472;28;20038;-59
2022/01/20 00:02:46;;;;;;;10.32;1.70;;;;;;;7.75;66.22;102623.84;4980889;28;20048;-59
2022/01/20 00:27:19;;;;;;;14.45;1.80;;;;;;;7.80;67.72;102653.56;4968009;28;20048;-60
2022/01/20 00:30:23;;;;;;;20.65;2.13;;;;;;;7.77;67.39;102644.72;4981312;28;20062;-59
2022/01/20 00:33:15;;;;;;;21.80;2.10;;;;;;;7.94;65.97;102647.38;4970594;28;20045;-60
2022/01/20 00:38:25;;;;;;;18.42;2.05;;;;;;;8.06;63.15;102642.81;4981331;28;20496;-59
2022/01/20 00:40:51;;;;;;;15.52;2.25;;;;;;;8.15;63.16;102645.00;4976485;28;20753;-60
2022/01/20 00:43:16;;;;;;;12.68;2.05;;;;;;;8.05;63.15;102647.97;4975214;28;20045;-60
2022/01/20 00:45:42;;;;;;;14.55;1.92;;;;;;;8.17;62.75;102640.78;4980999;28;20492;-58
2022/01/20 00:48:07;;;;;;;20.02;2.70;;;;;;;8.21;62.76;102650.53;4982541;28;20650;-58
2022/01/20 00:50:35;;;;;;;18.00;1.98;;;;;;;8.29;62.84;102640.53;4980443;28;20041;-59
2022/01/20 00:53:02;;;;;;;15.38;2.78;;;;;;;8.33;62.78;102651.19;4978405;28;20050;-59
2022/01/20 00:55:28;;;;;;;21.38;2.10;;;;;;;8.22;63.21;102652.31;4978729;28;20076;-59
2022/01/20 00:57:53;;;;;;;9.35;1.45;;;;;;;8.35;63.36;102646.97;4982849;28;20145;-60
2022/01/20 01:00:18;;;;;;;13.90;1.83;;;;;;;8.41;63.61;102654.16;4982801;28;20495;-59
2022/01/20 01:02:44;;;;;;;13.20;2.40;;;;;;;8.32;64.33;102654.59;4982001;28;20133;-59
2022/01/20 01:05:10;;;;;;;18.83;1.98;;;;;;;8.30;64.93;102658.81;4958600;28;20452;-60
2022/01/20 01:07:48;;;;;;;20.50;2.58;;;;;;;8.35;64.91;102646.06;4970719;28;20100;-59
2022/01/20 01:10:16;;;;;;;20.30;2.78;;;;;;;8.41;64.53;102649.88;4978861;28;20092;-58
2022/01/20 01:15:17;;;;;;;16.02;2.35;;;;;;;8.37;65.22;102642.72;4975095;28;20567;-59
2022/01/20 01:20:28;;;;;;;9.60;1.60;;;;;;;8.43;63.55;102652.50;4981660;28;20111;-59
2022/01/20 01:22:54;;;;;;;14.15;1.52;;;;;;;8.47;62.56;102644.97;4983148;28;20489;-59
2022/01/20 01:25:19;;;;;;;6.70;1.00;;;;;;;8.43;60.86;102658.63;4979517;28;20346;-59
2022/01/20 01:27:45;;;;;;;9.75;1.13;;;;;;;8.49;60.38;102658.03;4985529;28;20141;-59
2022/01/20 01:32:57;;;;;;;7.30;0.85;;;;;;;8.37;59.62;102663.50;4974667;28;20317;-59
2022/01/20 01:35:24;;;;;;;5.18;1.00;;;;;;;8.34;59.79;102647.75;4977630;28;20563;-59
2022/01/20 01:40:34;;;;;;;6.07;0.95;;;;;;;8.11;61.17;102650.88;4986214;28;20092;-59
2022/01/20 01:43:06;;;;;;;13.52;1.05;;;;;;;8.11;61.89;102656.06;4982427;28;20587;-59
2022/01/20 01:45:39;;;;;;;11.00;1.35;;;;;;;8.06;62.11;102671.38;4947409;28;20065;-59
2022/01/20 01:48:05;;;;;;;17.40;2.03;;;;;;;8.17;61.79;102660.69;4983915;28;20046;-59
2022/01/20 01:50:31;;;;;;;16.27;2.10;;;;;;;8.14;61.82;102672.69;4984394;28;20056;-59
2022/01/20 01:52:58;;;;;;;17.42;1.98;;;;;;;8.13;61.86;102673.50;4984156;28;20046;-59
2022/01/20 01:55:24;;;;;;;19.10;2.55;;;;;;;8.14;61.22;102682.19;4978014;28;20272;-60
2022/01/20 01:57:49;;;;;;;18.55;2.30;;;;;;;8.06;61.52;102678.28;4965852;28;20076;-59
2022/01/20 02:00:16;;;;;;;19.50;2.13;;;;;;;8.13;61.24;102690.78;4977401;28;20038;-59
2022/01/20 02:02:44;;;;;;;17.50;2.53;;;;;;;8.14;61.43;102680.47;4983588;28;20501;-59
2022/01/20 02:05:14;;;;;;;17.17;2.40;;;;;;;8.25;61.00;102680.13;4978257;28;20124;-60
2022/01/20 02:18:56;;;;;;;19.17;2.30;;;;;;;8.16;60.36;102664.97;4981727;28;20057;-59
2022/01/20 02:21:21;;;;;;;21.25;2.35;;;;;;;7.91;60.65;102659.31;4970015;28;21296;-59
2022/01/20 02:23:47;;;;;;;20.27;2.65;;;;;;;8.12;60.29;102670.81;4980600;28;20379;-59
2022/01/20 02:26:13;;;;;;;16.13;2.50;;;;;;;8.12;60.09;102671.72;4984397;28;20606;-59
2022/01/20 02:28:38;;;;;;;20.60;2.58;;;;;;;8.09;59.99;102666.38;4979283;28;20041;-58
2022/01/20 02:31:04;;;;;;;23.73;2.80;;;;;;;8.07;59.58;102670.59;4978561;28;20579;-57
2022/01/20 02:33:31;;;;;;;18.02;2.42;;;;;;;8.05;59.54;102668.75;4977320;28;20184;-59
2022/01/20 02:36:09;;;;;;;17.65;2.95;;;;;;;7.87;59.87;102657.38;4982667;28;20049;-58
2022/01/20 02:38:46;;;;;;;18.77;2.55;;;;;;;8.01;60.09;102662.47;4984558;28;20414;-58
2022/01/20 02:46:50;;;;;;;19.92;3.10;;;;;;;8.21;60.20;102650.53;4983370;28;20076;-58
2022/01/20 02:49:16;;;;;;;19.13;2.58;;;;;;;8.18;59.67;102654.66;4973055;28;20500;-59
2022/01/20 02:51:52;;;;;;;23.65;3.20;;;;;;;8.32;60.40;102651.97;4980528;28;20046;-58
2022/01/20 02:54:19;;;;;;;20.05;2.53;;;;;;;8.30;61.48;102651.00;4981799;28;20156;-58
2022/01/20 02:56:44;;;;;;;18.58;2.50;;;;;;;8.35;61.35;102648.66;4984747;28;20564;-58
2022/01/20 02:59:10;;;;;;;15.90;1.83;;;;;;;8.17;61.28;102650.28;4973251;28;20038;-59
2022/01/20 03:01:36;;;;;;;11.50;1.77;;;;;;;7.91;61.54;102659.31;4984202;28;20078;-58
2022/01/20 03:04:02;;;;;;;13.90;1.88;;;;;;;7.87;61.75;102657.38;4976616;28;20049;-58
2022/01/20 03:06:28;;;;;;;18.95;2.00;;;;;;;8.08;61.56;102661.09;4963934;28;20049;-58
2022/01/20 03:08:53;;;;;;;19.05;2.35;;;;;;;8.16;61.53;102659.78;4984609;28;20120;-58
2022/01/20 03:11:19;;;;;;;17.92;2.50;;;;;;;8.09;62.28;102655.97;4973801;28;20049;-59
2022/01/20 03:13:44;;;;;;;14.10;2.40;;;;;;;8.12;62.22;102648.31;4967372;28;20038;-58
2022/01/20 03:16:09;;;;;;;29.90;3.08;;;;;;;8.15;62.28;102664.09;4983003;28;20046;-60
2022/01/20 03:18:35;;;;;;;18.17;2.47;;;;;;;8.09;62.09;102665.47;4980739;28;20068;-59
2022/01/20 03:21:02;;;;;;;15.55;2.22;;;;;;;8.26;62.15;102682.81;4978600;28;20037;-61
2022/01/20 03:23:27;;;;;;;15.57;2.25;;;;;;;8.26;61.96;102685.41;4961179;28;20068;-61
2022/01/20 03:25:55;;;;;;;18.40;2.00;;;;;;;8.21;61.88;102673.00;4977076;28;20205;-58
2022/01/20 03:28:21;;;;;;;11.98;2.10;;;;;;;8.14;61.80;102679.59;4984568;28;20500;-59
2022/01/20 03:30:46;;;;;;;14.57;2.08;;;;;;;8.14;61.86;102680.47;4977612;28;20196;-59
2022/01/20 03:33:12;;;;;;;17.20;2.30;;;;;;;8.07;62.33;102680.06;4971066;28;20107;-58
2022/01/20 03:35:37;;;;;;;10.52;1.90;;;;;;;8.05;62.90;102677.38;4985456;28;20038;-58
2022/01/20 03:38:03;;;;;;;13.63;2.17;;;;;;;7.91;63.58;102688.78;4976909;28;20064;-58
2022/01/20 03:40:28;;;;;;;19.08;1.95;;;;;;;7.78;64.83;102714.00;4981646;28;20310;-60
2022/01/20 03:42:54;;;;;;;8.68;1.30;;;;;;;7.51;66.40;102716.88;4984518;28;20044;-58
2022/01/20 03:45:24;;;;;;;14.57;1.55;;;;;;;7.48;67.53;102721.91;4971996;28;20136;-59
2022/01/20 03:47:51;;;;;;;9.43;1.20;;;;;;;7.42;68.07;102718.09;4981839;28;20037;-59
2022/01/20 03:53:02;;;;;;;9.60;1.10;;;;;;;7.19;69.34;102712.53;4968518;28;20618;-59
2022/01/20 03:55:27;;;;;;;10.57;1.63;;;;;;;7.21;69.41;102726.44;4974874;28;22909;-59
2022/01/20 03:57:52;;;;;;;10.65;1.08;;;;;;;7.19;69.48;102715.13;4978689;28;20042;-59
2022/01/20 04:00:18;;;;;;;6.93;0.90;;;;;;;7.26;69.30;102713.72;4982467;28;20041;-59
2022/01/20 04:02:43;;;;;;;16.13;1.30;;;;;;;7.15;69.60;102712.25;4979039;28;20461;-59
2022/01/20 04:05:08;;;;;;;8.48;0.80;;;;;;;6.95;69.89;102715.41;4976799;28;20149;-60
2022/01/20 04:07:34;;;;;;;6.95;0.80;;;;;;;7.05;69.95;102715.13;4982492;28;20045;-58
2022/01/20 04:09:59;;;;;;;9.10;1.10;;;;;;;7.21;68.83;102725.56;4981327;28;20741;-59
2022/01/20 04:12:24;;;;;;;11.98;1.73;;;;;;;6.99;68.90;102712.19;4981805;28;20582;-59
2022/01/20 04:14:50;;;;;;;6.28;0.95;;;;;;;7.03;68.90;102715.03;4963677;28;20527;-59
2022/01/20 04:17:20;;;;;;;10.02;1.20;;;;;;;6.89;68.53;102721.16;4973606;28;20666;-59
2022/01/20 04:19:46;;;;;;;12.02;1.25;;;;;;;7.09;68.57;102719.66;4979162;28;20116;-59
2022/01/20 04:22:11;;;;;;;10.68;1.10;;;;;;;7.24;68.17;102744.78;4974278;28;20149;-59
2022/01/20 04:24:37;;;;;;;14.40;1.73;;;;;;;6.96;66.89;102737.91;4980244;28;20054;-60
2022/01/20 04:27:03;;;;;;;11.07;1.42;;;;;;;7.27;66.34;102731.09;4976083;28;20050;-59
2022/01/20 04:29:29;;;;;;;15.15;1.45;;;;;;;7.22;65.36;102738.63;4977861;28;20401;-59
2022/01/20 04:31:54;;;;;;;11.98;1.58;;;;;;;7.29;64.31;102745.03;4980209;28;20084;-59
2022/01/20 04:34:20;;;;;;;9.68;1.50;;;;;;;7.35;64.09;102735.00;4980232;28;20053;-59
2022/01/20 04:36:48;;;;;;;10.15;1.35;;;;;;;7.31;63.94;102741.75;4979410;28;20532;-59
2022/01/20 04:39:18;;;;;;;12.95;1.83;;;;;;;7.41;63.72;102750.94;4975294;28;20551;-59
2022/01/20 04:41:43;;;;;;;13.20;2.15;;;;;;;7.39;63.37;102746.44;4975097;28;20118;-58
2022/01/20 04:44:14;;;;;;;19.33;1.90;;;;;;;7.37;64.26;102761.94;4984526;28;20887;-59
2022/01/20 04:46:52;;;;;;;30.83;3.20;;;;;;;7.29;66.28;102769.28;4987530;28;20071;-58
2022/01/20 04:57:29;;;;;;;22.00;2.33;;;;;;;5.88;69.50;102804.81;4975533;28;20799;-59
2022/01/20 04:59:55;;;;;;;21.10;2.42;;;;;;;5.99;69.51;102803.78;4981682;28;20292;-59
2022/01/20 05:02:23;;;;;;;16.55;2.67;;;;;;;6.22;69.13;102799.16;4977336;28;20045;-59
2022/01/20 05:04:49;;;;;;;24.00;3.10;;;;;;;5.96;69.22;102802.72;4979071;28;20054;-58
2022/01/20 05:07:21;;;;;;;22.75;2.47;;;;;;;6.22;68.25;102802.63;4978797;28;20057;-59
2022/01/20 05:09:47;;;;;;;24.70;2.97;;;;;;;6.02;68.76;102809.19;4987515;28;20037;-59
2022/01/20 05:12:16;;;;;;;23.75;2.83;;;;;;;6.40;67.66;102806.34;4980520;28;20116;-59
2022/01/20 05:14:43;;;;;;;20.20;2.88;;;;;;;6.53;67.53;102815.75;4986490;28;20050;-59
2022/01/20 05:17:09;;;;;;;31.77;3.20;;;;;;;6.73;67.10;102815.25;4973931;28;20056;-59
2022/01/20 05:19:34;;;;;;;24.20;3.20;;;;;;;6.76;66.83;102817.16;4982291;28;20218;-59
2022/01/20 05:22:00;;;;;;;33.05;3.67;;;;;;;6.84;66.88;102811.59;4988783;28;20512;-59
2022/01/20 05:24:26;;;;;;;30.40;3.45;;;;;;;6.66;66.82;102819.97;4984196;28;20042;-59
2022/01/20 05:26:53;;;;;;;31.40;3.55;;;;;;;6.87;66.23;102816.97;4990262;28;20128;-59
2022/01/20 05:29:19;;;;;;;23.52;3.28;;;;;;;6.88;64.71;102823.06;4972359;28;20038;-59
2022/01/20 05:31:44;;;;;;;30.50;3.35;;;;;;;6.83;63.57;102819.31;4989437;28;20524;-59
2022/01/20 05:34:10;;;;;;;18.60;2.72;;;;;;;6.80;60.66;102824.28;4979724;28;20558;-59
2022/01/20 05:36:35;;;;;;;21.40;2.58;;;;;;;6.74;59.56;102829.13;4968692;28;20208;-59
2022/01/20 05:39:03;;;;;;;12.23;1.95;;;;;;;6.88;57.33;102833.44;4985322;28;20042;-59
2022/01/20 05:41:28;;;;;;;16.38;2.03;;;;;;;7.17;56.40;102825.66;4977062;28;20049;-59
2022/01/20 05:43:53;;;;;;;12.95;2.10;;;;;;;7.43;56.57;102831.47;4984951;28;20618;-59
2022/01/20 05:46:23;;;;;;;21.45;2.50;;;;;;;7.23;54.73;102833.78;4984952;28;20045;-59
2022/01/20 05:48:49;;;;;;;21.70;2.90;;;;;;;7.13;54.79;102834.09;4985717;28;20077;-59
2022/01/20 05:51:15;;;;;;;13.90;1.92;;;;;;;7.44;54.70;102834.13;4975623;28;20044;-59
2022/01/20 05:53:41;;;;;;;14.40;2.05;;;;;;;7.52;54.02;102857.91;4981212;28;20361;-59
2022/01/20 05:56:06;;;;;;;16.52;2.20;;;;;;;7.47;53.88;102847.28;4980565;28;20612;-58
2022/01/20 05:58:36;;;;;;;15.05;1.92;;;;;;;7.41;54.06;102854.72;4977006;28;20457;-59
2022/01/20 06:01:05;;;;;;;15.32;1.80;;;;;;;7.60;54.33;102864.44;4983729;28;20049;-59
2022/01/20 06:03:36;;;;;;;19.13;1.92;;;;;;;7.29;56.08;102857.50;4977886;28;20698;-59
2022/01/20 06:06:10;;;;;;;19.35;2.45;;;;;;;7.45;56.86;102867.06;4986516;28;20826;-59
2022/01/20 06:08:36;;;;;;;17.45;2.42;;;;;;;7.41;58.02;102864.19;4982878;28;20295;-60
2022/01/20 06:11:03;;;;;;;15.07;2.25;;;;;;;7.25;59.55;102872.81;4980103;28;20046;-60
2022/01/20 06:13:29;;;;;;;14.75;2.50;;;;;;;7.09;60.33;102868.41;4980349;28;20053;-59
2022/01/20 06:15:55;;;;;;;20.23;2.03;;;;;;;6.99;60.65;102880.75;4983189;28;20050;-59
2022/01/20 06:18:20;;;;;;;13.63;1.90;;;;;;;6.81;58.94;102868.47;4984010;28;20428;-60
2022/01/20 06:20:46;;;;;;;12.02;1.52;;;;;;;6.86;58.15;102863.56;4978178;28;20050;-59
2022/01/20 06:23:12;;;;;;;10.10;1.77;;;;;;;6.95;57.85;102871.91;4960140;28;20394;-60
2022/01/20 06:25:37;;;;;;;16.38;1.98;;;;;;;6.76;57.31;102864.72;4981797;28;20046;-60
2022/01/20 06:28:03;;;;;;;9.02;1.60;;;;;;;6.90;56.68;102863.81;4967302;28;20054;-58
2022/01/20 06:30:31;;;;;;;13.63;1.42;;;;;;;6.74;55.60;102874.09;4983199;28;20490;-59
2022/01/20 06:32:56;;;;;;;10.73;1.77;;;;;;;6.63;53.65;102882.00;4985152;28;20132;-59
2022/01/20 06:35:22;;;;;;;12.13;1.30;;;;;;;6.68;52.23;102873.72;4976073;28;20333;-59
2022/01/20 06:37:47;;;;;;;11.60;1.52;;;;;;;6.85;52.64;102879.91;4967396;28;20120;-59
2022/01/20 06:40:13;;;;;;;11.50;1.40;;;;;;;6.80;51.66;102878.75;4982803;28;20046;-59
2022/01/20 06:42:39;;;;;;;6.03;1.23;;;;;;;6.90;52.50;102883.66;4964825;28;20104;-59
2022/01/20 06:45:06;;;;;;;6.05;1.30;;;;;;;6.78;52.67;102882.91;4976215;28;20101;-59
2022/01/20 06:47:31;;;;;;;11.75;1.70;;;;;;;6.97;52.77;102898.78;4984998;28;20193;-58
2022/01/20 06:49:57;;;;;;;9.00;1.35;;;;;;;6.83;53.15;102897.09;4975260;28;20127;-59
2022/01/20 06:52:22;;;;;;;7.10;1.40;;;;;;;6.52;53.23;102902.09;4982704;28;21279;-59
2022/01/20 06:54:48;;;;;;;10.80;1.58;;;;;;;6.76;53.07;102906.19;4964931;28;20038;-59
2022/01/20 06:57:13;;;;;;;10.85;1.45;;;;;;;6.78;53.59;102903.66;4974754;28;20049;-59
2022/01/20 06:59:39;;;;;;;9.70;1.30;;;;;;;6.71;53.86;102907.56;4985546;28;20052;-58
2022/01/20 07:02:04;;;;;;;13.95;2.10;;;;;;;6.85;54.52;102914.50;4974216;28;20038;-58
2022/01/20 07:04:32;;;;;;;11.70;1.48;;;;;;;6.81;55.14;102930.69;4970037;28;20041;-60
2022/01/20 07:06:57;;;;;;;14.80;1.58;;;;;;;6.87;55.43;102930.16;4977231;28;20065;-59
2022/01/20 07:09:22;;;;;;;11.70;1.80;;;;;;;6.91;54.56;102935.63;4970700;28;20042;-59
2022/01/20 07:11:48;;;;;;;7.63;1.20;;;;;;;6.98;53.05;102938.59;4977713;28;20133;-59
2022/01/20 07:14:13;;;;;;;10.32;1.80;;;;;;;7.10;53.10;102926.34;4983465;28;20042;-59
2022/01/20 07:16:39;;;;;;;9.98;1.75;;;;;;;7.04;52.94;102934.66;4976437;28;20050;-58
2022/01/20 07:19:04;;;;;;;10.48;1.60;;;;;;;6.88;52.98;102938.03;4977236;28;20042;-59
2022/01/20 07:21:29;;;;;;;10.95;1.50;;;;;;;7.12;53.12;102941.22;4975424;28;20099;-58
2022/01/20 07:23:55;;;;;;;9.93;1.63;;;;;;;7.03;53.37;102948.44;4962180;28;20049;-59
2022/01/20 07:26:20;;;;;;;9.35;1.60;;;;;;;7.05;53.55;102944.25;4976241;28;20057;-59
2022/01/20 07:28:46;;;;;;;8.45;1.45;;;;;;;7.11;53.89;102947.22;4984075;28;20135;-59
2022/01/20 07:31:11;;;;;;;12.73;1.67;;;;;;;7.13;54.28;102943.03;4969701;28;20056;-61
2022/01/20 07:33:37;;;;;;;13.63;2.08;;;;;;;7.15;54.76;102943.97;4984068;28;20107;-59
2022/01/20 07:36:03;;;;;;;12.35;1.50;;;;;;;7.17;55.52;102947.56;4980868;28;20236;-59
2022/01/20 07:38:29;;;;;;;13.13;2.05;;;;;;;7.10;56.38;102945.41;4976245;28;20049;-59
2022/01/20 07:40:55;;;;;;;12.73;2.17;;;;;;;7.16;56.55;102957.84;4975927;28;21849;-59
2022/01/20 07:43:20;;;;;;;15.95;2.10;;;;;;;6.96;56.90;102959.22;4974416;28;20484;-60
2022/01/20 07:45:46;;;;;;;16.90;1.80;;;;;;;6.42;59.63;102965.38;4983875;28;20133;-59
2022/01/20 07:48:11;;;;;;;19.30;2.33;;;;;;;6.20;62.62;102980.34;4981414;28;20052;-60
2022/01/20 07:50:37;;;;;;;21.98;2.03;;;;;;;5.95;61.88;102979.56;4967674;28;20156;-59
2022/01/20 07:53:03;;;;;;;18.73;1.90;;;;;;;6.32;61.38;102986.31;4973393;28;20052;-59
2022/01/20 07:55:28;;;;;;;16.10;2.05;;;;;;;6.49;60.90;102992.56;4975293;28;20464;-59
2022/01/20 07:57:54;;;;;;;21.67;2.63;;;;;;;6.42;60.96;103000.75;4981405;28;20084;-60
2022/01/20 08:00:19;;;;;;;15.73;2.25;;;;;;;6.45;60.50;103001.84;4968914;28;20042;-56
2022/01/20 08:02:45;;;;;;;16.00;2.58;;;;;;;6.45;59.95;102988.00;4975880;28;20496;-59
2022/01/20 08:05:11;;;;;;;18.63;3.42;;;;;;;6.48;60.13;102991.66;4968193;28;20460;-58
2022/01/20 08:07:36;;;;;;;17.30;2.40;;;;;;;6.38;59.55;102985.81;4973783;28;21567;-59
2022/01/20 08:10:02;;;;;;;23.35;2.97;;;;;;;6.33;59.35;102987.22;4975077;28;20141;-59
2022/01/20 08:12:29;;;;;;;21.90;2.97;;;;;;;6.50;59.47;102989.19;4979526;28;20068;-59
2022/01/20 08:14:55;;;;;;;24.13;4.10;;;;;;;6.67;59.01;102987.66;4982786;28;20049;-59
2022/01/20 08:17:21;;;;;;;25.63;4.28;;;;;;;6.80;58.18;102985.03;4952611;28;20264;-58
2022/01/20 08:19:47;;;;;;;22.17;4.32;;;;;;;6.91;57.10;102992.66;4978780;28;20041;-58
2022/01/20 08:22:13;;;;;;;17.45;2.38;;;;;;;6.80;55.21;102988.53;4961122;28;20036;-59
2022/01/20 08:24:39;;;;;;;14.85;2.90;;;;;;;7.04;54.94;102993.41;4972753;28;20046;-58
2022/01/20 08:27:04;;;;;;;14.93;2.72;;;;;;;7.08;54.44;102991.09;4979030;28;20484;-57
2022/01/20 08:29:30;;;;;;;14.60;2.30;;;;;;;7.22;53.95;102989.34;4974667;28;20296;-58
2022/01/20 08:31:55;;;;;;;19.42;2.70;;;;;;;7.15;52.63;102988.06;4979990;28;20451;-59
2022/01/20 08:34:20;;;;;;;14.93;2.60;;;;;;;7.32;53.62;102989.09;4976294;28;20477;-58
2022/01/20 08:36:46;;;;;;;18.00;2.78;;;;;;;7.44;53.48;102978.56;4980893;28;20042;-59
2022/01/20 08:41:57;;;;;;;19.33;4.03;;;;;;;7.56;53.39;103000.94;4977218;28;20080;-58
2022/01/20 08:44:22;;;;;;;24.85;3.13;;;;;;;7.48;53.25;103002.19;4983512;28;20049;-59
2022/01/20 08:46:48;;;;;;;27.55;3.60;;;;;;;7.38;53.06;102999.84;4974740;28;20528;-58
2022/01/20 08:49:14;;;;;;;13.80;2.42;;;;;;;7.40;53.28;103016.41;4964703;28;20832;-58
2022/01/20 08:51:40;;;;;;;17.63;3.47;;;;;;;7.28;53.04;103023.44;4971547;28;20045;-59
2022/01/20 08:54:05;;;;;;;13.32;2.80;;;;;;;7.40;53.46;103028.47;4968832;28;20049;-58
2022/01/20 08:56:34;;;;;;;18.13;3.45;;;;;;;7.39;53.58;103029.28;4976855;28;20151;-58
2022/01/20 08:58:59;;;;;;;13.85;2.10;;;;;;;7.44;53.77;103035.66;4977580;28;20093;-59
2022/01/20 09:01:25;;;;;;;17.10;2.50;;;;;;;7.37;54.05;103049.06;4971990;28;20458;-58
2022/01/20 09:03:50;;;;;;;22.40;6.00;;;;;;;7.12;54.65;103054.44;4974416;28;20073;-59
2022/01/20 09:06:15;;;;;;;20.45;6.25;;;;;;;7.27;54.41;103060.56;4980777;28;20050;-59
2022/01/20 09:08:41;;;;;;;17.70;3.20;;;;;;;7.10;53.17;103056.03;4976452;28;20045;-59
2022/01/20 09:11:18;;;;;;;23.95;4.43;;;;;;;7.13;52.59;103054.56;4973142;28;20489;-60
2022/01/20 09:16:27;;;;;;;13.82;3.72;;;;;;;7.51;51.96;103063.75;4971305;28;20342;-59
2022/01/20 09:18:53;;;;;;;19.42;3.47;;;;;;;7.51;51.74;103082.81;4978565;28;20042;-59
2022/01/20 09:21:21;;;;;;;15.07;2.90;;;;;;;7.84;51.72;103076.19;4966399;28;20048;-59
2022/01/20 09:23:47;;;;;;;20.38;4.60;;;;;;;7.90;51.74;103083.44;4962270;28;20042;-58
2022/01/20 09:26:13;;;;;;;17.02;5.43;;;;;;;7.94;51.91;103083.69;4980619;28;20073;-60
2022/01/20 09:28:38;;;;;;;13.43;2.20;;;;;;;7.61;52.04;103084.28;4974488;28;20045;-58
2022/01/20 09:31:04;;;;;;;15.25;2.40;;;;;;;7.77;52.36;103084.41;4977892;28;21062;-59
2022/01/20 09:33:30;;;;;;;11.80;2.33;;;;;;;7.83;52.82;103089.97;4976050;28;20092;-58
2022/01/20 09:35:57;;;;;;;14.52;2.97;;;;;;;7.74;52.80;103099.81;4972272;28;20358;-58
2022/01/20 09:38:22;;;;;;;15.98;2.50;;;;;;;7.73;52.56;103087.63;4961541;28;20041;-56
2022/01/20 09:40:48;;;;;;;19.55;3.95;;;;;;;7.74;52.75;103086.84;4975567;28;20100;-59
2022/01/20 09:43:16;;;;;;;15.95;3.58;;;;;;;7.98;52.18;103090.00;4972453;28;20050;-59
2022/01/20 09:45:45;;;;;;;15.93;3.97;;;;;;;8.20;52.66;103093.03;4982625;28;20144;-58
2022/01/20 09:48:11;;;;;;;21.63;3.20;;;;;;;8.18;53.12;103096.31;4980580;28;20030;-58
2022/01/20 09:50:37;;;;;;;11.80;2.45;;;;;;;8.04;53.78;103093.84;4976639;28;20052;-59
2022/01/20 09:53:03;;;;;;;14.68;2.22;;;;;;;7.95;54.20;103100.19;4980779;28;20555;-57
2022/01/20 09:55:30;;;;;;;22.48;3.33;;;;;;;7.77;56.32;103109.47;4958705;28;20042;-59
2022/01/20 09:57:55;;;;;;;14.18;2.15;;;;;;;7.58;56.65;103097.06;4981282;28;20059;-61
2022/01/20 10:00:21;;;;;;;14.23;2.45;;;;;;;7.28;57.82;103104.78;4979449;28;20118;-59
2022/01/20 10:03:09;;;;;;;13.52;2.20;;;;;;;7.73;57.18;103116.19;4958828;28;20049;-59
2022/01/20 10:05:39;;;;;;;11.60;2.47;;;;;;;7.61;56.66;103107.66;4962002;28;20057;-58
2022/01/20 10:08:10;;;;;;;13.85;2.05;;;;;;;7.65;55.83;103118.31;4980091;28;20449;-58
2022/01/20 10:10:52;;;;;;;9.70;1.60;;;;;;;7.46;54.58;103128.38;4980528;28;20026;-58
2022/01/20 10:13:24;;;;;;;11.85;1.63;;;;;;;7.56;54.47;103135.91;4971513;28;20404;-59
2022/01/20 10:16:12;;;;;;;8.85;1.50;;;;;;;7.57;53.87;103137.72;4981045;28;20072;-58
2022/01/20 10:18:53;;;;;;;11.48;1.73;;;;;;;7.42;54.00;103144.56;4983350;28;20067;-59
2022/01/20 10:21:27;;;;;;;12.13;1.73;;;;;;;7.62;53.59;103144.06;4960223;28;20058;-59
2022/01/20 10:23:53;;;;;;;12.95;1.80;;;;;;;7.58;52.97;103168.06;4965528;28;20042;-57
2022/01/20 10:26:20;;;;;;;12.98;1.83;;;;;;;7.49;52.25;103170.09;4964541;28;20045;-59
2022/01/20 10:29:01;;;;;;;10.80;1.52;;;;;;;7.85;51.62;103157.59;4975499;28;20366;-58
2022/01/20 10:31:53;;;;;;;21.85;6.03;;;;;;;7.75;51.57;103149.22;4960170;28;21304;-58
2022/01/20 10:34:20;;;;;;;18.48;4.85;;;;;;;8.01;51.66;103147.31;4960980;28;20132;-58
2022/01/20 10:36:54;;;;;;;13.48;1.73;;;;;;;8.04;51.73;103150.09;4980069;28;20318;-57
2022/01/20 10:39:30;;;;;;;10.82;1.95;;;;;;;8.02;51.38;103162.09;4973078;28;20049;-58
2022/01/20 10:42:05;;;;;;;11.02;1.70;;;;;;;7.90;51.64;103159.66;4976070;28;20048;-59
2022/01/20 10:44:44;;;;;;;15.85;2.15;;;;;;;8.10;51.50;103166.94;4981856;28;20116;-58
2022/01/20 10:47:15;;;;;;;14.23;1.70;;;;;;;8.32;51.54;103161.34;4967428;28;20366;-59
2022/01/20 10:49:42;;;;;;;11.10;1.67;;;;;;;8.50;51.36;103164.13;4982236;28;20423;-59
2022/01/20 10:52:10;;;;;;;12.90;1.73;;;;;;;8.72;51.15;103172.34;4979931;28;20150;-59
2022/01/20 10:54:39;;;;;;;15.20;1.88;;;;;;;8.73;50.67;103171.53;4978035;28;20107;-59
2022/01/20 10:57:05;;;;;;;13.20;1.63;;;;;;;8.81;50.14;103171.97;4964895;28;20540;-58
2022/01/20 10:59:32;;;;;;;13.25;2.10;;;;;;;8.77;51.70;103168.31;4968540;28;20165;-59
2022/01/20 11:02:06;;;;;;;14.50;2.22;;;;;;;8.88;51.37;103175.03;4972457;28;20073;-58
2022/01/20 11:04:32;;;;;;;20.60;2.00;;;;;;;8.94;51.91;103174.47;4956027;28;20045;-58
2022/01/20 11:07:01;;;;;;;13.48;1.95;;;;;;;8.85;51.90;103171.34;4963653;28;20062;-58
2022/01/20 11:09:28;;;;;;;14.18;2.03;;;;;;;8.84;51.75;103182.56;4974973;28;20161;-58
2022/01/20 11:11:55;;;;;;;13.23;1.80;;;;;;;8.83;52.30;103181.69;4974344;28;20639;-57
2022/01/20 11:14:21;;;;;;;14.90;2.45;;;;;;;8.78;52.28;103183.09;4982237;28;20534;-57
2022/01/20 11:16:46;;;;;;;14.43;2.30;;;;;;;8.78;52.29;103193.50;4961374;28;20072;-59
2022/01/20 11:19:21;;;;;;;14.93;2.30;;;;;;;8.46;55.64;103190.75;4956689;28;20170;-57
2022/01/20 11:21:46;;;;;;;;;;;;;;;7.69;60.30;103192.97;4967131;28;20033;-58
2022/01/20 11:24:18;;;;;;;12.25;2.05;;;;;;;7.40;61.77;103194.56;4959470;28;20348;-59
2022/01/20 11:26:49;;;;;;;14.45;1.70;;;;;;;7.43;62.25;103181.78;4980689;28;20568;-58
2022/01/20 11:29:16;;;;;;;18.05;1.98;;;;;;;7.15;62.51;103181.72;4970855;28;20494;-58
2022/01/20 11:31:42;;;;;;;14.75;1.90;;;;;;;7.43;62.43;103177.50;4978489;28;20122;-58
2022/01/20 11:34:20;;;;;;;14.25;1.83;;;;;;;7.48;61.24;103167.41;4961076;28;20041;-58
2022/01/20 11:36:46;;;;;;;8.82;2.20;;;;;;;7.48;61.99;103168.31;4981029;28;20060;-58
2022/01/20 11:39:12;;;;;;;13.68;2.15;;;;;;;7.50;61.37;103158.88;4975346;28;20496;-59
2022/01/20 11:41:40;;;;;;;19.88;2.70;;;;;;;7.66;60.92;103158.16;4975904;28;20706;-59
2022/01/20 11:44:27;;;;;;;15.55;2.45;;;;;;;7.88;60.56;103149.97;4963156;28;20034;-59
2022/01/20 11:47:03;;;;;;;14.27;1.80;;;;;;;8.15;58.37;103149.03;4976374;28;20054;-59
2022/01/20 11:49:35;;;;;;;15.88;1.80;;;;;;;8.28;57.61;103140.25;4959481;28;20037;-59
2022/01/20 11:52:00;;;;;;;12.77;2.10;;;;;;;8.15;56.09;103144.72;4980582;28;20037;-59
2022/01/20 11:54:32;;;;;;;14.63;1.85;;;;;;;8.44;56.24;103149.06;4969836;28;20521;-57
2022/01/20 11:57:16;;;;;;;15.57;2.30;;;;;;;8.64;55.80;103131.13;4981151;28;20052;-55
2022/01/20 11:59:55;;;;;;;16.20;2.72;;;;;;;8.69;54.57;103138.38;4972124;28;20041;-57
2022/01/20 12:02:32;;;;;;;22.73;6.57;;;;;;;8.87;54.08;103136.81;4980962;28;20508;-57
2022/01/20 12:04:59;;;;;;;16.52;3.78;;;;;;;8.88;53.94;103125.59;4950750;28;20529;-57
2022/01/20 12:07:31;;;;;;;16.27;3.65;;;;;;;8.75;53.06;103137.81;4960410;28;20133;-58
2022/01/20 12:10:14;;;;;;;22.48;3.22;;;;;;;8.88;54.81;103146.41;4973118;28;20040;-60
2022/01/20 12:12:40;;;;;;;12.45;2.28;;;;;;;8.68;55.81;103136.56;4958831;28;20646;-59
2022/01/20 12:15:17;;;;;;;15.10;1.95;;;;;;;8.31;54.70;103135.25;4962253;28;20395;-57
2022/01/20 12:17:52;;;;;;;12.27;1.83;;;;;;;8.11;54.55;103127.16;4979771;28;20149;-58
2022/01/20 12:20:18;;;;;;;6.03;1.20;;;;;;;8.06;54.40;103138.06;4977704;28;20050;-57
2022/01/20 12:22:45;;;;;;;11.55;1.77;;;;;;;7.89;55.19;103129.28;4978368;28;20045;-59
2022/01/20 12:25:26;;;;;;;7.50;1.55;;;;;;;8.05;56.44;103131.13;4972200;28;20063;-58
2022/01/20 12:28:00;;;;;;;12.73;1.85;;;;;;;8.19;56.73;103132.81;4963154;28;20128;-59
2022/01/20 12:30:26;;;;;;;10.18;1.80;;;;;;;8.12;56.55;103136.75;4974850;28;20057;-58
2022/01/20 12:32:56;;;;;;;15.07;1.98;;;;;;;8.31;56.04;103132.66;4966278;28;20037;-58
2022/01/20 12:35:22;;;;;;;10.85;1.80;;;;;;;8.31;56.10;103127.47;4970728;28;20610;-58
2022/01/20 12:37:47;;;;;;;12.75;1.60;;;;;;;8.47;55.25;103133.66;4979524;28;20049;-59